sensor_id;sensor_type;location;lat;lon;timestamp;P1;durP1;ratioP1;P2;durP2;ratioP2
5042;SDS011;2540;50.928;6.856;2023-06-19T00:00:50;8.77;;;5.07;;
5042;SDS011;2540;50.928;6.856;2023-06-19T00:03:15;8.80;;;5.47;;
5042;SDS011;2540;50.928;6.856;2023-06-19T00:05:41;12.80;;;5.57;;
5042;SDS011;2540;50.928;6.856;2023-06-19T00:08:06;7.90;;;5.23;;
5042;SDS011;2540;50.928;6.856;2023-06-19T00:10:32;9.00;;;5.27;;
5042;SDS011;2540;50.928;6.856;2023-06-19T00:12:57;8.23;;;5.27;;
5042;SDS011;2540;50.928;6.856;2023-06-19T00:15:23;7.60;;;5.67;;
5042;SDS011;2540;50.928;6.856;2023-06-19T00:17:48;5.50;;;4.90;;
5042;SDS011;2540;50.928;6.856;2023-06-19T00:20:13;7.80;;;5.53;;
5042;SDS011;2540;50.928;6.856;2023-06-19T00:22:39;8.20;;;5.97;;
5042;SDS011;2540;50.928;6.856;2023-06-19T00:25:06;8.43;;;5.40;;
5042;SDS011;2540;50.928;6.856;2023-06-19T00:27:31;7.57;;;5.87;;
5042;SDS011;2540;50.928;6.856;2023-06-19T00:29:57;7.50;;;5.03;;
5042;SDS011;2540;50.928;6.856;2023-06-19T00:32:27;9.63;;;5.60;;
5042;SDS011;2540;50.928;6.856;2023-06-19T00:34:56;7.37;;;5.70;;
5042;SDS011;2540;50.928;6.856;2023-06-19T00:37:21;8.63;;;6.20;;
5042;SDS011;2540;50.928;6.856;2023-06-19T00:39:47;6.63;;;5.20;;
5042;SDS011;2540;50.928;6.856;2023-06-19T00:42:12;9.30;;;5.90;;
5042;SDS011;2540;50.928;6.856;2023-06-19T00:44:38;7.50;;;5.73;;
5042;SDS011;2540;50.928;6.856;2023-06-19T00:47:04;6.57;;;5.20;;
5042;SDS011;2540;50.928;6.856;2023-06-19T00:49:30;7.80;;;6.27;;
5042;SDS011;2540;50.928;6.856;2023-06-19T00:51:56;7.63;;;6.10;;
5042;SDS011;2540;50.928;6.856;2023-06-19T00:54:21;9.10;;;6.43;;
5042;SDS011;2540;50.928;6.856;2023-06-19T00:56:47;13.63;;;5.80;;
5042;SDS011;2540;50.928;6.856;2023-06-19T00:59:22;7.60;;;5.83;;
5042;SDS011;2540;50.928;6.856;2023-06-19T01:01:47;7.53;;;6.13;;
5042;SDS011;2540;50.928;6.856;2023-06-19T01:04:13;8.50;;;5.80;;
5042;SDS011;2540;50.928;6.856;2023-06-19T01:06:42;9.80;;;6.30;;
5042;SDS011;2540;50.928;6.856;2023-06-19T01:09:13;9.60;;;6.73;;
5042;SDS011;2540;50.928;6.856;2023-06-19T01:11:43;18.60;;;6.00;;
5042;SDS011;2540;50.928;6.856;2023-06-19T01:17:05;9.97;;;6.73;;
5042;SDS011;2540;50.928;6.856;2023-06-19T01:19:31;7.67;;;6.20;;
5042;SDS011;2540;50.928;6.856;2023-06-19T01:21:56;9.70;;;6.90;;
5042;SDS011;2540;50.928;6.856;2023-06-19T01:24:22;8.03;;;6.07;;
5042;SDS011;2540;50.928;6.856;2023-06-19T01:26:48;11.53;;;7.73;;
5042;SDS011;2540;50.928;6.856;2023-06-19T01:29:13;9.80;;;7.27;;
5042;SDS011;2540;50.928;6.856;2023-06-19T01:31:42;10.30;;;7.20;;
5042;SDS011;2540;50.928;6.856;2023-06-19T01:34:15;8.80;;;6.50;;
5042;SDS011;2540;50.928;6.856;2023-06-19T01:36:42;14.17;;;6.40;;
5042;SDS011;2540;50.928;6.856;2023-06-19T01:39:08;8.53;;;6.63;;
5042;SDS011;2540;50.928;6.856;2023-06-19T01:41:34;10.70;;;7.10;;
5042;SDS011;2540;50.928;6.856;2023-06-19T01:44:00;11.20;;;7.67;;
5042;SDS011;2540;50.928;6.856;2023-06-19T01:46:27;11.50;;;7.53;;
5042;SDS011;2540;50.928;6.856;2023-06-19T01:48:52;19.37;;;7.07;;
5042;SDS011;2540;50.928;6.856;2023-06-19T01:51:18;10.50;;;7.30;;
5042;SDS011;2540;50.928;6.856;2023-06-19T01:53:44;10.67;;;7.37;;
5042;SDS011;2540;50.928;6.856;2023-06-19T01:56:09;10.30;;;7.87;;
5042;SDS011;2540;50.928;6.856;2023-06-19T01:58:34;13.13;;;7.57;;
5042;SDS011;2540;50.928;6.856;2023-06-19T02:01:00;10.90;;;7.40;;
5042;SDS011;2540;50.928;6.856;2023-06-19T02:03:25;11.97;;;7.10;;
5042;SDS011;2540;50.928;6.856;2023-06-19T02:05:51;11.20;;;8.10;;
5042;SDS011;2540;50.928;6.856;2023-06-19T02:08:16;9.30;;;7.80;;
5042;SDS011;2540;50.928;6.856;2023-06-19T02:10:41;10.33;;;7.30;;
5042;SDS011;2540;50.928;6.856;2023-06-19T02:13:07;10.17;;;7.40;;
5042;SDS011;2540;50.928;6.856;2023-06-19T02:15:32;14.37;;;9.00;;
5042;SDS011;2540;50.928;6.856;2023-06-19T02:17:58;12.03;;;8.63;;
5042;SDS011;2540;50.928;6.856;2023-06-19T02:20:24;13.20;;;8.60;;
5042;SDS011;2540;50.928;6.856;2023-06-19T02:22:50;12.03;;;8.67;;
5042;SDS011;2540;50.928;6.856;2023-06-19T02:25:16;12.00;;;8.60;;
5042;SDS011;2540;50.928;6.856;2023-06-19T02:27:41;11.77;;;8.07;;
5042;SDS011;2540;50.928;6.856;2023-06-19T02:30:07;13.20;;;7.63;;
5042;SDS011;2540;50.928;6.856;2023-06-19T02:32:32;12.23;;;7.60;;
5042;SDS011;2540;50.928;6.856;2023-06-19T02:34:58;10.80;;;8.20;;
5042;SDS011;2540;50.928;6.856;2023-06-19T02:37:23;10.53;;;8.20;;
5042;SDS011;2540;50.928;6.856;2023-06-19T02:39:49;10.00;;;7.27;;
5042;SDS011;2540;50.928;6.856;2023-06-19T02:42:14;9.93;;;7.97;;
5042;SDS011;2540;50.928;6.856;2023-06-19T02:44:39;9.60;;;7.13;;
5042;SDS011;2540;50.928;6.856;2023-06-19T02:47:05;12.57;;;7.50;;
5042;SDS011;2540;50.928;6.856;2023-06-19T02:49:31;12.67;;;7.97;;
5042;SDS011;2540;50.928;6.856;2023-06-19T02:51:56;11.13;;;7.60;;
5042;SDS011;2540;50.928;6.856;2023-06-19T02:54:21;11.57;;;7.83;;
5042;SDS011;2540;50.928;6.856;2023-06-19T02:56:47;10.30;;;7.90;;
5042;SDS011;2540;50.928;6.856;2023-06-19T02:59:13;11.70;;;8.10;;
5042;SDS011;2540;50.928;6.856;2023-06-19T03:01:38;10.40;;;7.40;;
5042;SDS011;2540;50.928;6.856;2023-06-19T03:04:03;11.60;;;7.80;;
5042;SDS011;2540;50.928;6.856;2023-06-19T03:06:29;14.00;;;8.77;;
5042;SDS011;2540;50.928;6.856;2023-06-19T03:08:55;11.57;;;7.47;;
5042;SDS011;2540;50.928;6.856;2023-06-19T03:11:21;10.73;;;6.93;;
5042;SDS011;2540;50.928;6.856;2023-06-19T03:13:47;10.97;;;7.87;;
5042;SDS011;2540;50.928;6.856;2023-06-19T03:16:14;12.50;;;7.03;;
5042;SDS011;2540;50.928;6.856;2023-06-19T03:18:40;13.10;;;7.60;;
5042;SDS011;2540;50.928;6.856;2023-06-19T03:21:06;9.07;;;7.40;;
5042;SDS011;2540;50.928;6.856;2023-06-19T03:23:31;10.00;;;7.37;;
5042;SDS011;2540;50.928;6.856;2023-06-19T03:25:57;10.27;;;7.20;;
5042;SDS011;2540;50.928;6.856;2023-06-19T03:28:23;10.40;;;7.27;;
5042;SDS011;2540;50.928;6.856;2023-06-19T03:30:48;9.93;;;7.40;;
5042;SDS011;2540;50.928;6.856;2023-06-19T03:33:14;10.80;;;7.50;;
5042;SDS011;2540;50.928;6.856;2023-06-19T03:35:40;9.10;;;7.00;;
5042;SDS011;2540;50.928;6.856;2023-06-19T03:38:05;10.80;;;7.77;;
5042;SDS011;2540;50.928;6.856;2023-06-19T03:40:31;17.13;;;7.53;;
5042;SDS011;2540;50.928;6.856;2023-06-19T03:42:56;13.77;;;8.03;;
5042;SDS011;2540;50.928;6.856;2023-06-19T03:45:21;11.40;;;7.80;;
5042;SDS011;2540;50.928;6.856;2023-06-19T03:47:47;14.47;;;7.10;;
5042;SDS011;2540;50.928;6.856;2023-06-19T03:50:12;8.30;;;6.70;;
5042;SDS011;2540;50.928;6.856;2023-06-19T03:52:37;10.83;;;6.60;;
5042;SDS011;2540;50.928;6.856;2023-06-19T03:55:03;8.40;;;6.30;;
5042;SDS011;2540;50.928;6.856;2023-06-19T03:57:29;8.30;;;6.23;;
5042;SDS011;2540;50.928;6.856;2023-06-19T03:59:54;7.50;;;5.17;;
5042;SDS011;2540;50.928;6.856;2023-06-19T04:02:20;10.80;;;5.27;;
5042;SDS011;2540;50.928;6.856;2023-06-19T04:04:46;7.90;;;5.90;;
5042;SDS011;2540;50.928;6.856;2023-06-19T04:07:11;8.73;;;5.30;;
5042;SDS011;2540;50.928;6.856;2023-06-19T04:09:36;7.30;;;5.40;;
5042;SDS011;2540;50.928;6.856;2023-06-19T04:12:02;11.90;;;4.80;;
5042;SDS011;2540;50.928;6.856;2023-06-19T04:14:27;9.93;;;4.90;;
5042;SDS011;2540;50.928;6.856;2023-06-19T04:16:52;9.70;;;4.23;;
5042;SDS011;2540;50.928;6.856;2023-06-19T04:19:18;6.40;;;4.70;;
5042;SDS011;2540;50.928;6.856;2023-06-19T04:21:43;5.63;;;4.00;;
5042;SDS011;2540;50.928;6.856;2023-06-19T04:24:08;6.03;;;3.40;;
5042;SDS011;2540;50.928;6.856;2023-06-19T04:26:34;4.83;;;3.60;;
5042;SDS011;2540;50.928;6.856;2023-06-19T04:29:00;13.20;;;4.43;;
5042;SDS011;2540;50.928;6.856;2023-06-19T04:31:26;6.10;;;3.10;;
5042;SDS011;2540;50.928;6.856;2023-06-19T04:33:53;5.10;;;3.63;;
5042;SDS011;2540;50.928;6.856;2023-06-19T04:36:20;3.70;;;2.90;;
5042;SDS011;2540;50.928;6.856;2023-06-19T04:38:48;4.30;;;2.87;;
5042;SDS011;2540;50.928;6.856;2023-06-19T04:41:16;3.93;;;3.20;;
5042;SDS011;2540;50.928;6.856;2023-06-19T04:43:42;7.87;;;3.50;;
5042;SDS011;2540;50.928;6.856;2023-06-19T04:46:07;4.03;;;3.53;;
5042;SDS011;2540;50.928;6.856;2023-06-19T04:48:32;4.90;;;3.40;;
5042;SDS011;2540;50.928;6.856;2023-06-19T04:51:00;4.43;;;3.20;;
5042;SDS011;2540;50.928;6.856;2023-06-19T04:53:26;5.30;;;3.50;;
5042;SDS011;2540;50.928;6.856;2023-06-19T04:55:52;8.73;;;3.20;;
5042;SDS011;2540;50.928;6.856;2023-06-19T04:58:19;5.10;;;2.97;;
5042;SDS011;2540;50.928;6.856;2023-06-19T05:00:46;9.33;;;3.33;;
5042;SDS011;2540;50.928;6.856;2023-06-19T05:03:19;3.10;;;2.53;;
5042;SDS011;2540;50.928;6.856;2023-06-19T05:05:44;9.60;;;2.83;;
5042;SDS011;2540;50.928;6.856;2023-06-19T05:08:09;6.93;;;3.40;;
5042;SDS011;2540;50.928;6.856;2023-06-19T05:10:35;4.53;;;2.83;;
5042;SDS011;2540;50.928;6.856;2023-06-19T05:13:00;5.77;;;3.00;;
5042;SDS011;2540;50.928;6.856;2023-06-19T05:15:27;4.47;;;2.33;;
5042;SDS011;2540;50.928;6.856;2023-06-19T05:17:52;5.60;;;3.00;;
5042;SDS011;2540;50.928;6.856;2023-06-19T05:20:18;3.03;;;2.43;;
5042;SDS011;2540;50.928;6.856;2023-06-19T05:22:43;3.97;;;2.77;;
5042;SDS011;2540;50.928;6.856;2023-06-19T05:25:08;3.00;;;2.60;;
5042;SDS011;2540;50.928;6.856;2023-06-19T05:27:34;2.97;;;2.40;;
5042;SDS011;2540;50.928;6.856;2023-06-19T05:29:59;3.43;;;2.90;;
5042;SDS011;2540;50.928;6.856;2023-06-19T05:32:25;5.30;;;2.70;;
5042;SDS011;2540;50.928;6.856;2023-06-19T05:34:50;4.70;;;2.50;;
5042;SDS011;2540;50.928;6.856;2023-06-19T05:37:16;3.77;;;2.70;;
5042;SDS011;2540;50.928;6.856;2023-06-19T05:39:41;3.90;;;2.90;;
5042;SDS011;2540;50.928;6.856;2023-06-19T05:42:07;3.83;;;2.70;;
5042;SDS011;2540;50.928;6.856;2023-06-19T05:44:32;7.13;;;2.93;;
5042;SDS011;2540;50.928;6.856;2023-06-19T05:46:57;4.00;;;2.90;;
5042;SDS011;2540;50.928;6.856;2023-06-19T05:49:23;11.20;;;2.60;;
5042;SDS011;2540;50.928;6.856;2023-06-19T05:51:48;3.00;;;2.30;;
5042;SDS011;2540;50.928;6.856;2023-06-19T05:54:13;6.50;;;2.27;;
5042;SDS011;2540;50.928;6.856;2023-06-19T05:56:39;6.10;;;2.50;;
5042;SDS011;2540;50.928;6.856;2023-06-19T05:59:04;3.50;;;2.63;;
5042;SDS011;2540;50.928;6.856;2023-06-19T06:01:30;5.10;;;2.30;;
5042;SDS011;2540;50.928;6.856;2023-06-19T06:03:55;3.77;;;2.63;;
5042;SDS011;2540;50.928;6.856;2023-06-19T06:06:22;3.97;;;2.37;;
5042;SDS011;2540;50.928;6.856;2023-06-19T06:08:48;3.17;;;2.40;;
5042;SDS011;2540;50.928;6.856;2023-06-19T06:11:13;5.77;;;2.67;;
5042;SDS011;2540;50.928;6.856;2023-06-19T06:13:39;2.97;;;2.50;;
5042;SDS011;2540;50.928;6.856;2023-06-19T06:16:04;2.60;;;1.93;;
5042;SDS011;2540;50.928;6.856;2023-06-19T06:18:29;5.27;;;2.53;;
5042;SDS011;2540;50.928;6.856;2023-06-19T06:20:55;3.90;;;2.13;;
5042;SDS011;2540;50.928;6.856;2023-06-19T06:23:20;9.70;;;2.97;;
5042;SDS011;2540;50.928;6.856;2023-06-19T06:25:45;2.83;;;2.00;;
5042;SDS011;2540;50.928;6.856;2023-06-19T06:28:11;2.57;;;2.00;;
5042;SDS011;2540;50.928;6.856;2023-06-19T06:30:37;4.30;;;2.37;;
5042;SDS011;2540;50.928;6.856;2023-06-19T06:33:03;4.80;;;2.23;;
5042;SDS011;2540;50.928;6.856;2023-06-19T06:35:29;3.83;;;2.40;;
5042;SDS011;2540;50.928;6.856;2023-06-19T06:37:54;5.10;;;2.23;;
5042;SDS011;2540;50.928;6.856;2023-06-19T06:40:20;3.60;;;2.60;;
5042;SDS011;2540;50.928;6.856;2023-06-19T06:42:45;2.83;;;1.83;;
5042;SDS011;2540;50.928;6.856;2023-06-19T06:45:12;4.73;;;1.90;;
5042;SDS011;2540;50.928;6.856;2023-06-19T06:47:37;2.43;;;1.80;;
5042;SDS011;2540;50.928;6.856;2023-06-19T06:50:04;2.00;;;1.47;;
5042;SDS011;2540;50.928;6.856;2023-06-19T06:52:31;2.70;;;1.60;;
5042;SDS011;2540;50.928;6.856;2023-06-19T06:54:56;3.60;;;1.90;;
5042;SDS011;2540;50.928;6.856;2023-06-19T06:57:22;1.83;;;1.50;;
5042;SDS011;2540;50.928;6.856;2023-06-19T06:59:47;3.80;;;1.73;;
5042;SDS011;2540;50.928;6.856;2023-06-19T07:02:12;2.70;;;1.50;;
5042;SDS011;2540;50.928;6.856;2023-06-19T07:04:38;2.50;;;1.87;;
5042;SDS011;2540;50.928;6.856;2023-06-19T07:07:03;1.67;;;1.50;;
5042;SDS011;2540;50.928;6.856;2023-06-19T07:09:30;1.87;;;1.40;;
5042;SDS011;2540;50.928;6.856;2023-06-19T07:11:56;1.50;;;1.23;;
5042;SDS011;2540;50.928;6.856;2023-06-19T07:14:21;2.70;;;1.47;;
5042;SDS011;2540;50.928;6.856;2023-06-19T07:16:47;3.13;;;1.53;;
5042;SDS011;2540;50.928;6.856;2023-06-19T07:19:12;6.10;;;1.63;;
5042;SDS011;2540;50.928;6.856;2023-06-19T07:21:38;1.80;;;1.60;;
5042;SDS011;2540;50.928;6.856;2023-06-19T07:24:04;1.57;;;1.10;;
5042;SDS011;2540;50.928;6.856;2023-06-19T07:26:30;2.20;;;1.50;;
5042;SDS011;2540;50.928;6.856;2023-06-19T07:28:55;2.10;;;1.57;;
5042;SDS011;2540;50.928;6.856;2023-06-19T07:31:21;2.63;;;1.43;;
5042;SDS011;2540;50.928;6.856;2023-06-19T07:33:46;1.57;;;1.30;;
5042;SDS011;2540;50.928;6.856;2023-06-19T07:36:11;5.23;;;1.77;;
5042;SDS011;2540;50.928;6.856;2023-06-19T07:38:39;1.43;;;1.33;;
5042;SDS011;2540;50.928;6.856;2023-06-19T07:41:05;1.70;;;1.57;;
5042;SDS011;2540;50.928;6.856;2023-06-19T07:43:32;1.93;;;1.50;;
5042;SDS011;2540;50.928;6.856;2023-06-19T07:45:57;1.90;;;1.30;;
5042;SDS011;2540;50.928;6.856;2023-06-19T07:48:23;3.43;;;1.63;;
5042;SDS011;2540;50.928;6.856;2023-06-19T07:50:48;2.00;;;1.50;;
5042;SDS011;2540;50.928;6.856;2023-06-19T07:53:13;2.00;;;1.80;;
5042;SDS011;2540;50.928;6.856;2023-06-19T07:55:39;3.37;;;1.50;;
5042;SDS011;2540;50.928;6.856;2023-06-19T07:58:06;2.43;;;1.60;;
5042;SDS011;2540;50.928;6.856;2023-06-19T08:00:31;2.13;;;1.70;;
5042;SDS011;2540;50.928;6.856;2023-06-19T08:02:57;2.80;;;1.70;;
5042;SDS011;2540;50.928;6.856;2023-06-19T08:05:22;2.77;;;1.77;;
5042;SDS011;2540;50.928;6.856;2023-06-19T08:07:47;5.13;;;1.93;;
5042;SDS011;2540;50.928;6.856;2023-06-19T08:10:13;4.63;;;1.83;;
5042;SDS011;2540;50.928;6.856;2023-06-19T08:12:38;2.67;;;1.87;;
5042;SDS011;2540;50.928;6.856;2023-06-19T08:15:03;1.97;;;1.67;;
5042;SDS011;2540;50.928;6.856;2023-06-19T08:17:29;2.00;;;1.60;;
5042;SDS011;2540;50.928;6.856;2023-06-19T08:19:54;1.60;;;1.20;;
5042;SDS011;2540;50.928;6.856;2023-06-19T08:22:20;9.23;;;1.93;;
5042;SDS011;2540;50.928;6.856;2023-06-19T08:24:45;3.43;;;1.97;;
5042;SDS011;2540;50.928;6.856;2023-06-19T08:27:10;2.90;;;1.80;;
5042;SDS011;2540;50.928;6.856;2023-06-19T08:29:35;3.47;;;2.40;;
5042;SDS011;2540;50.928;6.856;2023-06-19T08:32:01;2.20;;;2.00;;
5042;SDS011;2540;50.928;6.856;2023-06-19T08:34:28;2.47;;;1.80;;
5042;SDS011;2540;50.928;6.856;2023-06-19T08:36:53;2.43;;;1.93;;
5042;SDS011;2540;50.928;6.856;2023-06-19T08:39:19;2.90;;;2.07;;
5042;SDS011;2540;50.928;6.856;2023-06-19T08:41:47;3.67;;;2.17;;
5042;SDS011;2540;50.928;6.856;2023-06-19T08:44:12;3.90;;;2.07;;
5042;SDS011;2540;50.928;6.856;2023-06-19T08:46:38;2.63;;;2.20;;
5042;SDS011;2540;50.928;6.856;2023-06-19T08:49:03;2.40;;;2.20;;
5042;SDS011;2540;50.928;6.856;2023-06-19T08:51:31;2.57;;;2.10;;
5042;SDS011;2540;50.928;6.856;2023-06-19T08:54:00;3.37;;;2.40;;
5042;SDS011;2540;50.928;6.856;2023-06-19T08:56:27;7.90;;;3.20;;
5042;SDS011;2540;50.928;6.856;2023-06-19T08:58:53;8.00;;;2.63;;
5042;SDS011;2540;50.928;6.856;2023-06-19T09:01:19;5.60;;;3.23;;
5042;SDS011;2540;50.928;6.856;2023-06-19T09:03:45;3.27;;;2.67;;
5042;SDS011;2540;50.928;6.856;2023-06-19T09:06:11;5.57;;;3.40;;
5042;SDS011;2540;50.928;6.856;2023-06-19T09:08:40;3.63;;;3.00;;
5042;SDS011;2540;50.928;6.856;2023-06-19T09:11:05;4.93;;;3.20;;
5042;SDS011;2540;50.928;6.856;2023-06-19T09:13:31;6.20;;;3.50;;
5042;SDS011;2540;50.928;6.856;2023-06-19T09:16:06;8.27;;;2.60;;
5042;SDS011;2540;50.928;6.856;2023-06-19T09:18:53;4.30;;;2.87;;
5042;SDS011;2540;50.928;6.856;2023-06-19T09:21:18;5.00;;;3.17;;
5042;SDS011;2540;50.928;6.856;2023-06-19T09:23:46;6.53;;;3.27;;
5042;SDS011;2540;50.928;6.856;2023-06-19T09:26:15;4.00;;;3.10;;
5042;SDS011;2540;50.928;6.856;2023-06-19T09:28:43;5.03;;;3.10;;
5042;SDS011;2540;50.928;6.856;2023-06-19T09:31:08;4.67;;;3.27;;
5042;SDS011;2540;50.928;6.856;2023-06-19T09:33:34;6.07;;;3.07;;
5042;SDS011;2540;50.928;6.856;2023-06-19T09:36:01;4.90;;;3.00;;
5042;SDS011;2540;50.928;6.856;2023-06-19T09:38:28;4.37;;;3.30;;
5042;SDS011;2540;50.928;6.856;2023-06-19T09:40:55;4.40;;;3.37;;
5042;SDS011;2540;50.928;6.856;2023-06-19T09:43:28;9.60;;;3.30;;
5042;SDS011;2540;50.928;6.856;2023-06-19T09:45:58;6.00;;;2.77;;
5042;SDS011;2540;50.928;6.856;2023-06-19T09:48:28;4.50;;;2.97;;
5042;SDS011;2540;50.928;6.856;2023-06-19T09:53:58;12.53;;;3.80;;
5042;SDS011;2540;50.928;6.856;2023-06-19T09:56:25;8.03;;;3.30;;
5042;SDS011;2540;50.928;6.856;2023-06-19T09:58:53;6.60;;;3.30;;
5042;SDS011;2540;50.928;6.856;2023-06-19T10:01:20;7.10;;;3.47;;
5042;SDS011;2540;50.928;6.856;2023-06-19T10:03:46;6.47;;;3.27;;
5042;SDS011;2540;50.928;6.856;2023-06-19T10:06:15;8.20;;;3.60;;
5042;SDS011;2540;50.928;6.856;2023-06-19T10:08:42;5.20;;;3.17;;
5042;SDS011;2540;50.928;6.856;2023-06-19T10:11:08;5.33;;;3.03;;
5042;SDS011;2540;50.928;6.856;2023-06-19T10:13:35;12.20;;;3.53;;
5042;SDS011;2540;50.928;6.856;2023-06-19T10:16:03;5.33;;;3.40;;
5042;SDS011;2540;50.928;6.856;2023-06-19T10:18:29;5.23;;;3.57;;
5042;SDS011;2540;50.928;6.856;2023-06-19T10:20:56;8.63;;;3.60;;
5042;SDS011;2540;50.928;6.856;2023-06-19T10:23:23;5.07;;;3.43;;
5042;SDS011;2540;50.928;6.856;2023-06-19T10:25:57;5.53;;;3.80;;
5042;SDS011;2540;50.928;6.856;2023-06-19T10:28:24;6.60;;;3.87;;
5042;SDS011;2540;50.928;6.856;2023-06-19T10:31:01;4.70;;;3.70;;
5042;SDS011;2540;50.928;6.856;2023-06-19T10:33:30;9.83;;;3.70;;
5042;SDS011;2540;50.928;6.856;2023-06-19T10:35:59;7.10;;;4.10;;
5042;SDS011;2540;50.928;6.856;2023-06-19T10:38:26;5.77;;;4.20;;
5042;SDS011;2540;50.928;6.856;2023-06-19T10:40:51;10.80;;;4.23;;
5042;SDS011;2540;50.928;6.856;2023-06-19T10:43:20;7.50;;;3.37;;
5042;SDS011;2540;50.928;6.856;2023-06-19T10:45:47;5.30;;;3.80;;
5042;SDS011;2540;50.928;6.856;2023-06-19T10:48:17;5.67;;;3.77;;
5042;SDS011;2540;50.928;6.856;2023-06-19T10:50:44;5.97;;;3.30;;
5042;SDS011;2540;50.928;6.856;2023-06-19T10:53:09;5.57;;;3.43;;
5042;SDS011;2540;50.928;6.856;2023-06-19T10:55:35;8.60;;;3.63;;
5042;SDS011;2540;50.928;6.856;2023-06-19T10:58:00;5.60;;;3.80;;
5042;SDS011;2540;50.928;6.856;2023-06-19T11:00:26;4.70;;;3.17;;
5042;SDS011;2540;50.928;6.856;2023-06-19T11:02:53;7.20;;;3.97;;
5042;SDS011;2540;50.928;6.856;2023-06-19T11:05:20;5.60;;;3.87;;
5042;SDS011;2540;50.928;6.856;2023-06-19T11:10:25;8.53;;;4.03;;
5042;SDS011;2540;50.928;6.856;2023-06-19T11:12:55;6.20;;;3.80;;
5042;SDS011;2540;50.928;6.856;2023-06-19T11:15:31;7.00;;;3.83;;
5042;SDS011;2540;50.928;6.856;2023-06-19T11:17:58;6.90;;;4.03;;
5042;SDS011;2540;50.928;6.856;2023-06-19T11:20:24;5.70;;;3.90;;
5042;SDS011;2540;50.928;6.856;2023-06-19T11:22:54;7.77;;;3.63;;
5042;SDS011;2540;50.928;6.856;2023-06-19T11:25:20;12.93;;;3.87;;
5042;SDS011;2540;50.928;6.856;2023-06-19T11:27:46;11.63;;;3.40;;
5042;SDS011;2540;50.928;6.856;2023-06-19T11:30:17;6.40;;;3.50;;
5042;SDS011;2540;50.928;6.856;2023-06-19T11:32:43;7.30;;;4.00;;
5042;SDS011;2540;50.928;6.856;2023-06-19T11:35:10;11.20;;;3.53;;
5042;SDS011;2540;50.928;6.856;2023-06-19T11:37:39;8.60;;;3.87;;
5042;SDS011;2540;50.928;6.856;2023-06-19T11:40:05;7.10;;;4.00;;
5042;SDS011;2540;50.928;6.856;2023-06-19T11:42:52;7.47;;;4.20;;
5042;SDS011;2540;50.928;6.856;2023-06-19T11:45:18;6.57;;;3.67;;
5042;SDS011;2540;50.928;6.856;2023-06-19T11:47:44;8.77;;;3.90;;
5042;SDS011;2540;50.928;6.856;2023-06-19T11:50:10;5.63;;;3.83;;
5042;SDS011;2540;50.928;6.856;2023-06-19T11:52:36;13.50;;;3.80;;
5042;SDS011;2540;50.928;6.856;2023-06-19T11:55:01;7.77;;;3.93;;
5042;SDS011;2540;50.928;6.856;2023-06-19T11:57:27;5.93;;;3.50;;
5042;SDS011;2540;50.928;6.856;2023-06-19T11:59:52;8.27;;;4.00;;
5042;SDS011;2540;50.928;6.856;2023-06-19T12:02:18;5.47;;;3.40;;
5042;SDS011;2540;50.928;6.856;2023-06-19T12:04:43;11.37;;;4.10;;
5042;SDS011;2540;50.928;6.856;2023-06-19T12:07:08;6.60;;;3.90;;
5042;SDS011;2540;50.928;6.856;2023-06-19T12:09:34;7.00;;;3.97;;
5042;SDS011;2540;50.928;6.856;2023-06-19T12:11:59;8.07;;;3.43;;
5042;SDS011;2540;50.928;6.856;2023-06-19T12:14:25;8.90;;;4.40;;
5042;SDS011;2540;50.928;6.856;2023-06-19T12:16:51;6.83;;;3.90;;
5042;SDS011;2540;50.928;6.856;2023-06-19T12:19:17;6.03;;;3.73;;
5042;SDS011;2540;50.928;6.856;2023-06-19T12:21:42;4.83;;;3.30;;
5042;SDS011;2540;50.928;6.856;2023-06-19T12:24:07;7.50;;;3.70;;
5042;SDS011;2540;50.928;6.856;2023-06-19T12:26:36;3.93;;;3.23;;
5042;SDS011;2540;50.928;6.856;2023-06-19T12:29:05;5.20;;;3.03;;
5042;SDS011;2540;50.928;6.856;2023-06-19T12:31:31;6.43;;;3.40;;
5042;SDS011;2540;50.928;6.856;2023-06-19T12:33:57;4.80;;;3.03;;
5042;SDS011;2540;50.928;6.856;2023-06-19T12:36:22;4.43;;;2.53;;
5042;SDS011;2540;50.928;6.856;2023-06-19T12:38:48;3.80;;;2.70;;
5042;SDS011;2540;50.928;6.856;2023-06-19T12:41:14;4.37;;;2.53;;
5042;SDS011;2540;50.928;6.856;2023-06-19T12:43:39;7.10;;;3.40;;
5042;SDS011;2540;50.928;6.856;2023-06-19T12:46:05;4.23;;;2.70;;
5042;SDS011;2540;50.928;6.856;2023-06-19T12:48:30;4.77;;;3.50;;
5042;SDS011;2540;50.928;6.856;2023-06-19T12:50:57;4.90;;;3.30;;
5042;SDS011;2540;50.928;6.856;2023-06-19T12:53:22;6.10;;;2.67;;
5042;SDS011;2540;50.928;6.856;2023-06-19T12:55:51;6.40;;;3.43;;
5042;SDS011;2540;50.928;6.856;2023-06-19T12:58:18;7.03;;;3.03;;
5042;SDS011;2540;50.928;6.856;2023-06-19T13:00:43;6.33;;;3.20;;
5042;SDS011;2540;50.928;6.856;2023-06-19T13:03:08;5.97;;;3.57;;
5042;SDS011;2540;50.928;6.856;2023-06-19T13:05:34;5.30;;;3.20;;
5042;SDS011;2540;50.928;6.856;2023-06-19T13:07:59;4.33;;;3.17;;
5042;SDS011;2540;50.928;6.856;2023-06-19T13:10:24;4.27;;;3.20;;
5042;SDS011;2540;50.928;6.856;2023-06-19T13:12:50;6.37;;;3.10;;
5042;SDS011;2540;50.928;6.856;2023-06-19T13:15:15;4.53;;;2.70;;
5042;SDS011;2540;50.928;6.856;2023-06-19T13:17:40;5.37;;;3.27;;
5042;SDS011;2540;50.928;6.856;2023-06-19T13:20:06;5.37;;;3.60;;
5042;SDS011;2540;50.928;6.856;2023-06-19T13:22:31;4.20;;;3.20;;
5042;SDS011;2540;50.928;6.856;2023-06-19T13:24:57;5.73;;;3.60;;
5042;SDS011;2540;50.928;6.856;2023-06-19T13:27:22;4.47;;;3.03;;
5042;SDS011;2540;50.928;6.856;2023-06-19T13:29:48;8.13;;;3.17;;
5042;SDS011;2540;50.928;6.856;2023-06-19T13:32:13;9.20;;;3.60;;
5042;SDS011;2540;50.928;6.856;2023-06-19T13:34:38;5.60;;;3.27;;
5042;SDS011;2540;50.928;6.856;2023-06-19T13:37:03;10.53;;;3.23;;
5042;SDS011;2540;50.928;6.856;2023-06-19T13:39:29;5.63;;;4.03;;
5042;SDS011;2540;50.928;6.856;2023-06-19T13:41:55;9.53;;;3.80;;
5042;SDS011;2540;50.928;6.856;2023-06-19T13:44:20;7.77;;;3.97;;
5042;SDS011;2540;50.928;6.856;2023-06-19T13:46:46;4.17;;;3.40;;
5042;SDS011;2540;50.928;6.856;2023-06-19T13:49:12;6.93;;;4.53;;
5042;SDS011;2540;50.928;6.856;2023-06-19T13:51:38;4.60;;;2.90;;
5042;SDS011;2540;50.928;6.856;2023-06-19T13:54:04;8.17;;;3.40;;
5042;SDS011;2540;50.928;6.856;2023-06-19T13:56:30;5.17;;;3.73;;
5042;SDS011;2540;50.928;6.856;2023-06-19T13:58:55;4.73;;;3.23;;
5042;SDS011;2540;50.928;6.856;2023-06-19T14:01:21;11.70;;;3.40;;
5042;SDS011;2540;50.928;6.856;2023-06-19T14:03:46;13.43;;;3.60;;
5042;SDS011;2540;50.928;6.856;2023-06-19T14:06:11;5.30;;;3.90;;
5042;SDS011;2540;50.928;6.856;2023-06-19T14:08:37;5.77;;;3.57;;
5042;SDS011;2540;50.928;6.856;2023-06-19T14:11:04;4.53;;;3.20;;
5042;SDS011;2540;50.928;6.856;2023-06-19T14:13:30;5.27;;;3.47;;
5042;SDS011;2540;50.928;6.856;2023-06-19T14:15:55;5.60;;;3.40;;
5042;SDS011;2540;50.928;6.856;2023-06-19T14:18:21;5.00;;;3.47;;
5042;SDS011;2540;50.928;6.856;2023-06-19T14:20:46;4.73;;;3.40;;
5042;SDS011;2540;50.928;6.856;2023-06-19T14:23:11;8.93;;;4.00;;
5042;SDS011;2540;50.928;6.856;2023-06-19T14:25:37;9.53;;;3.07;;
5042;SDS011;2540;50.928;6.856;2023-06-19T14:28:03;3.73;;;3.23;;
5042;SDS011;2540;50.928;6.856;2023-06-19T14:30:29;5.57;;;3.90;;
5042;SDS011;2540;50.928;6.856;2023-06-19T14:32:54;8.43;;;3.40;;
5042;SDS011;2540;50.928;6.856;2023-06-19T14:35:20;4.90;;;3.30;;
5042;SDS011;2540;50.928;6.856;2023-06-19T14:37:45;11.97;;;3.47;;
5042;SDS011;2540;50.928;6.856;2023-06-19T14:40:11;5.63;;;3.77;;
5042;SDS011;2540;50.928;6.856;2023-06-19T14:42:36;5.13;;;3.20;;
5042;SDS011;2540;50.928;6.856;2023-06-19T14:45:01;9.57;;;3.43;;
5042;SDS011;2540;50.928;6.856;2023-06-19T14:47:27;5.47;;;3.93;;
5042;SDS011;2540;50.928;6.856;2023-06-19T14:49:52;9.73;;;3.47;;
5042;SDS011;2540;50.928;6.856;2023-06-19T14:52:19;5.43;;;3.63;;
5042;SDS011;2540;50.928;6.856;2023-06-19T14:54:44;5.20;;;3.73;;
5042;SDS011;2540;50.928;6.856;2023-06-19T14:57:10;6.10;;;3.60;;
5042;SDS011;2540;50.928;6.856;2023-06-19T14:59:35;4.37;;;3.10;;
5042;SDS011;2540;50.928;6.856;2023-06-19T15:02:00;6.50;;;3.60;;
5042;SDS011;2540;50.928;6.856;2023-06-19T15:04:27;5.80;;;3.67;;
5042;SDS011;2540;50.928;6.856;2023-06-19T15:06:52;6.60;;;3.73;;
5042;SDS011;2540;50.928;6.856;2023-06-19T15:09:18;4.80;;;3.20;;
5042;SDS011;2540;50.928;6.856;2023-06-19T15:11:43;5.33;;;2.90;;
5042;SDS011;2540;50.928;6.856;2023-06-19T15:14:09;13.03;;;4.00;;